KLM162 TTPP-TNCM
Flight info
| Callsign | KLM162 |
|---|---|
| Flight time | 1h 9m |
| Altitude | 35000 |
| Route | POS UM402 ANU UB520 ELOPO DCT PJM |
| Aircraft | B77W/H-SDE1E2E3FGHIJ2J3J4J5M1RWXY/LB1D1 |
Departure
| Time | 2026-05-05 19:16 |
|---|---|
| Airport | Piarco International Airport (TTPP) |
Arrival
| Time | 2026-05-05 20:26 |
|---|---|
| Airport | Princess Juliana International Airport (TNCM) |
| Time | Latitude | Longitude | Altitude | Speed | Heading |
|---|---|---|---|---|---|
| 2026-05-05 18:47 | 10.59957 | -61.33689 | 48 ft | 0 kts | 66° |
| 2026-05-05 19:08 | 10.59952 | -61.33700 | 52 ft | 4 kts | 81° |
| 2026-05-05 19:08 | 10.59954 | -61.33715 | 47 ft | 4 kts | 172° |
| 2026-05-05 19:08 | 10.59980 | -61.33714 | 49 ft | 4 kts | 189° |
| 2026-05-05 19:09 | 10.60003 | -61.33711 | 46 ft | 1 kts | 181° |
| 2026-05-05 19:10 | 10.60002 | -61.33711 | 46 ft | 1 kts | 181° |
| 2026-05-05 19:11 | 10.59924 | -61.33730 | 46 ft | 22 kts | 196° |
| 2026-05-05 19:11 | 10.59776 | -61.33734 | 50 ft | 18 kts | 179° |
| 2026-05-05 19:11 | 10.59713 | -61.33793 | 51 ft | 12 kts | 262° |
| 2026-05-05 19:11 | 10.59709 | -61.33880 | 64 ft | 12 kts | 268° |
| 2026-05-05 19:12 | 10.59706 | -61.33968 | 49 ft | 12 kts | 268° |
| 2026-05-05 19:12 | 10.59707 | -61.34062 | 48 ft | 15 kts | 269° |
| 2026-05-05 19:12 | 10.59707 | -61.34182 | 47 ft | 18 kts | 270° |
| 2026-05-05 19:12 | 10.59706 | -61.34312 | 46 ft | 19 kts | 270° |
| 2026-05-05 19:13 | 10.59706 | -61.34445 | 45 ft | 19 kts | 268° |
| 2026-05-05 19:13 | 10.59624 | -61.34526 | 44 ft | 20 kts | 181° |
| 2026-05-05 19:13 | 10.59538 | -61.34612 | 43 ft | 21 kts | 268° |
| 2026-05-05 19:13 | 10.59539 | -61.34777 | 43 ft | 26 kts | 270° |
| 2026-05-05 19:14 | 10.59538 | -61.34978 | 39 ft | 29 kts | 266° |
| 2026-05-05 19:14 | 10.59516 | -61.35138 | 38 ft | 9 kts | 284° |
| 2026-05-05 19:14 | 10.59532 | -61.35157 | 38 ft | 3 kts | 327° |
| 2026-05-05 19:14 | 10.59541 | -61.35158 | 38 ft | 3 kts | 350° |
| 2026-05-05 19:15 | 10.59562 | -61.35144 | 38 ft | 4 kts | 64° |
| 2026-05-05 19:15 | 10.59557 | -61.35112 | 38 ft | 7 kts | 114° |
| 2026-05-05 19:15 | 10.59534 | -61.34965 | 39 ft | 42 kts | 91° |
| 2026-05-05 19:15 | 10.59537 | -61.34395 | 45 ft | 121 kts | 88° |
| 2026-05-05 19:16 | 10.59527 | -61.33324 | 246 ft | 169 kts | 91° |
| 2026-05-05 19:16 | 10.59573 | -61.32086 | 964 ft | 178 kts | 86° |
| 2026-05-05 19:16 | 10.59559 | -61.30814 | 1720 ft | 184 kts | 100° |
| 2026-05-05 19:16 | 10.59008 | -61.29605 | 2265 ft | 203 kts | 129° |
| 2026-05-05 19:17 | 10.57662 | -61.28804 | 2375 ft | 252 kts | 166° |
| 2026-05-05 19:17 | 10.55880 | -61.28960 | 3275 ft | 261 kts | 198° |
| 2026-05-05 19:17 | 10.54473 | -61.30020 | 4654 ft | 250 kts | 230° |
| 2026-05-05 19:17 | 10.53734 | -61.31643 | 5383 ft | 266 kts | 258° |
| 2026-05-05 19:18 | 10.53848 | -61.33600 | 5742 ft | 287 kts | 292° |
| 2026-05-05 19:18 | 10.54918 | -61.35307 | 6535 ft | 290 kts | 319° |
| 2026-05-05 19:18 | 10.56635 | -61.36342 | 7280 ft | 289 kts | 347° |
| 2026-05-05 19:18 | 10.58593 | -61.36669 | 8089 ft | 289 kts | 358° |
| 2026-05-05 19:19 | 10.60616 | -61.36822 | 8880 ft | 295 kts | 359° |
| 2026-05-05 19:19 | 10.62690 | -61.36941 | 9636 ft | 302 kts | 360° |
| 2026-05-05 19:19 | 10.64802 | -61.37056 | 10385 ft | 308 kts | 360° |
| 2026-05-05 19:19 | 10.67013 | -61.37178 | 10739 ft | 332 kts | 360° |
| 2026-05-05 19:20 | 10.69424 | -61.37316 | 10934 ft | 360 kts | 359° |
| 2026-05-05 19:20 | 10.72014 | -61.37476 | 11239 ft | 383 kts | 359° |
| 2026-05-05 19:20 | 10.74706 | -61.37653 | 11986 ft | 392 kts | 359° |
| 2026-05-05 19:20 | 10.76508 | -61.37778 | 12596 ft | 392 kts | 359° |
| 2026-05-05 19:21 | 10.79255 | -61.37966 | 13442 ft | 398 kts | 359° |
| 2026-05-05 19:21 | 10.82037 | -61.38163 | 14274 ft | 403 kts | 358° |
| 2026-05-05 19:21 | 10.84843 | -61.38365 | 15110 ft | 406 kts | 358° |
| 2026-05-05 19:21 | 10.88595 | -61.38635 | 16225 ft | 410 kts | 358° |
| 2026-05-05 19:22 | 10.90521 | -61.38773 | 16776 ft | 412 kts | 358° |
| 2026-05-05 19:22 | 10.93401 | -61.38978 | 17565 ft | 416 kts | 358° |
| 2026-05-05 19:22 | 10.96268 | -61.39182 | 18344 ft | 420 kts | 358° |
| 2026-05-05 19:22 | 10.99197 | -61.39390 | 18979 ft | 425 kts | 357° |
| 2026-05-05 19:23 | 11.02185 | -61.39602 | 19525 ft | 433 kts | 358° |
| 2026-05-05 19:23 | 11.05206 | -61.39817 | 20149 ft | 438 kts | 357° |
| 2026-05-05 19:23 | 11.08273 | -61.40035 | 20752 ft | 443 kts | 356° |
| 2026-05-05 19:23 | 11.11369 | -61.40256 | 21315 ft | 450 kts | 356° |
| 2026-05-05 19:24 | 11.14517 | -61.40481 | 21911 ft | 455 kts | 355° |
| 2026-05-05 19:24 | 11.17699 | -61.40708 | 22443 ft | 462 kts | 355° |
| 2026-05-05 19:24 | 11.20919 | -61.40939 | 23039 ft | 465 kts | 355° |
| 2026-05-05 19:24 | 11.24167 | -61.41172 | 23613 ft | 471 kts | 354° |
| 2026-05-05 19:25 | 11.27463 | -61.41408 | 24030 ft | 476 kts | 355° |
| 2026-05-05 19:25 | 11.30723 | -61.41641 | 24634 ft | 476 kts | 354° |
| 2026-05-05 19:25 | 11.34044 | -61.41877 | 25102 ft | 480 kts | 355° |
| 2026-05-05 19:25 | 11.37380 | -61.42112 | 25638 ft | 481 kts | 354° |
| 2026-05-05 19:26 | 11.40729 | -61.42350 | 26108 ft | 484 kts | 355° |
| 2026-05-05 19:26 | 11.44098 | -61.42591 | 26609 ft | 486 kts | 355° |
| 2026-05-05 19:26 | 11.47485 | -61.42833 | 27071 ft | 488 kts | 354° |
| 2026-05-05 19:26 | 11.50903 | -61.43077 | 27526 ft | 491 kts | 355° |
| 2026-05-05 19:27 | 11.54279 | -61.43317 | 27970 ft | 493 kts | 355° |
| 2026-05-05 19:27 | 11.57715 | -61.43562 | 28401 ft | 495 kts | 355° |
| 2026-05-05 19:27 | 11.61158 | -61.43809 | 28803 ft | 498 kts | 355° |
| 2026-05-05 19:27 | 11.64635 | -61.44057 | 29156 ft | 501 kts | 355° |
| 2026-05-05 19:28 | 11.68117 | -61.44306 | 29520 ft | 503 kts | 355° |
| 2026-05-05 19:28 | 11.71628 | -61.44557 | 29879 ft | 505 kts | 355° |
| 2026-05-05 19:28 | 11.75119 | -61.44807 | 30334 ft | 502 kts | 355° |
| 2026-05-05 19:28 | 11.78610 | -61.45056 | 30767 ft | 501 kts | 355° |
| 2026-05-05 19:29 | 11.82074 | -61.45304 | 31298 ft | 496 kts | 356° |
| 2026-05-05 19:29 | 11.85461 | -61.45546 | 31801 ft | 494 kts | 356° |
| 2026-05-05 19:29 | 11.88890 | -61.45791 | 32258 ft | 492 kts | 356° |
| 2026-05-05 19:29 | 11.92297 | -61.46035 | 32720 ft | 490 kts | 356° |
| 2026-05-05 19:30 | 11.95685 | -61.46278 | 33183 ft | 488 kts | 356° |
| 2026-05-05 19:30 | 11.99066 | -61.46520 | 33741 ft | 484 kts | 356° |
| 2026-05-05 19:30 | 12.02423 | -61.46760 | 34207 ft | 481 kts | 356° |
| 2026-05-05 19:30 | 12.05737 | -61.46998 | 34694 ft | 475 kts | 356° |
| 2026-05-05 19:31 | 12.09032 | -61.47235 | 35024 ft | 474 kts | 356° |
| 2026-05-05 19:31 | 12.12340 | -61.47473 | 35007 ft | 479 kts | 356° |
| 2026-05-05 19:31 | 12.19038 | -61.47952 | 35016 ft | 484 kts | 356° |
| 2026-05-05 19:32 | 12.25700 | -61.48431 | 35015 ft | 482 kts | 356° |
| 2026-05-05 19:32 | 12.32396 | -61.48911 | 35013 ft | 479 kts | 356° |
| 2026-05-05 19:33 | 12.39018 | -61.49387 | 35017 ft | 478 kts | 356° |
| 2026-05-05 19:33 | 12.45672 | -61.49728 | 35014 ft | 476 kts | 358° |
| 2026-05-05 19:34 | 12.52371 | -61.50007 | 35017 ft | 478 kts | 357° |
| 2026-05-05 19:35 | 12.62297 | -61.50674 | 35016 ft | 479 kts | 356° |
| 2026-05-05 19:35 | 12.68948 | -61.51188 | 35018 ft | 481 kts | 356° |
| 2026-05-05 19:36 | 12.75608 | -61.51702 | 35013 ft | 479 kts | 356° |
| 2026-05-05 19:36 | 12.82270 | -61.52210 | 35012 ft | 480 kts | 356° |
| 2026-05-05 19:37 | 12.88936 | -61.52715 | 35014 ft | 480 kts | 356° |
| 2026-05-05 19:37 | 12.95587 | -61.53220 | 35021 ft | 480 kts | 356° |
| 2026-05-05 19:38 | 13.02209 | -61.53722 | 35024 ft | 481 kts | 356° |
| 2026-05-05 19:38 | 13.08864 | -61.54228 | 35020 ft | 479 kts | 356° |
| 2026-05-05 19:39 | 13.15534 | -61.54735 | 35019 ft | 479 kts | 356° |
| 2026-05-05 19:39 | 13.22213 | -61.55243 | 35019 ft | 481 kts | 356° |
| 2026-05-05 19:40 | 13.28868 | -61.55749 | 35021 ft | 480 kts | 356° |
| 2026-05-05 19:40 | 13.35558 | -61.56259 | 35023 ft | 481 kts | 356° |
| 2026-05-05 19:41 | 13.42254 | -61.56769 | 35023 ft | 481 kts | 356° |
| 2026-05-05 19:41 | 13.48976 | -61.57282 | 35018 ft | 481 kts | 356° |
| 2026-05-05 19:42 | 13.55666 | -61.57792 | 35024 ft | 481 kts | 356° |
| 2026-05-05 19:42 | 13.62287 | -61.58283 | 35026 ft | 481 kts | 356° |
| 2026-05-05 19:43 | 13.68973 | -61.58687 | 35025 ft | 480 kts | 357° |
| 2026-05-05 19:43 | 13.75649 | -61.59072 | 35025 ft | 480 kts | 357° |
| 2026-05-05 19:44 | 13.82324 | -61.59470 | 35030 ft | 481 kts | 356° |
| 2026-05-05 19:44 | 13.89021 | -61.59877 | 35030 ft | 481 kts | 356° |
| 2026-05-05 19:45 | 13.95702 | -61.60284 | 35032 ft | 482 kts | 356° |
| 2026-05-05 19:45 | 14.02339 | -61.60688 | 35033 ft | 483 kts | 356° |
| 2026-05-05 19:46 | 14.09040 | -61.61096 | 35028 ft | 483 kts | 356° |
| 2026-05-05 19:46 | 14.15733 | -61.61503 | 35024 ft | 482 kts | 356° |
| 2026-05-05 19:47 | 14.22419 | -61.61911 | 35026 ft | 483 kts | 356° |
| 2026-05-05 19:47 | 14.29131 | -61.62323 | 35014 ft | 483 kts | 356° |
| 2026-05-05 19:48 | 14.35838 | -61.62736 | 35021 ft | 484 kts | 356° |
| 2026-05-05 19:48 | 14.42501 | -61.63147 | 35024 ft | 485 kts | 356° |
| 2026-05-05 19:49 | 14.49230 | -61.63562 | 35015 ft | 484 kts | 356° |
| 2026-05-05 19:49 | 14.55955 | -61.63976 | 35020 ft | 485 kts | 356° |
| 2026-05-05 19:50 | 14.62639 | -61.64388 | 35015 ft | 483 kts | 356° |
| 2026-05-05 19:50 | 14.69362 | -61.64804 | 35015 ft | 485 kts | 356° |
| 2026-05-05 19:51 | 14.76094 | -61.65219 | 35029 ft | 485 kts | 356° |
| 2026-05-05 19:51 | 14.82815 | -61.65634 | 35031 ft | 485 kts | 356° |
| 2026-05-05 19:52 | 14.89521 | -61.66049 | 35020 ft | 485 kts | 356° |
| 2026-05-05 19:52 | 14.96244 | -61.66465 | 35030 ft | 485 kts | 356° |
| 2026-05-05 19:53 | 15.02960 | -61.66952 | 35032 ft | 485 kts | 352° |
| 2026-05-05 19:53 | 15.09498 | -61.68534 | 35028 ft | 483 kts | 341° |
| 2026-05-05 19:54 | 15.15890 | -61.70733 | 35039 ft | 485 kts | 341° |
| 2026-05-05 19:54 | 15.22240 | -61.72909 | 35026 ft | 480 kts | 341° |
| 2026-05-05 19:55 | 15.28648 | -61.75074 | 35036 ft | 485 kts | 342° |
| 2026-05-05 19:55 | 15.35067 | -61.77229 | 35032 ft | 485 kts | 341° |
| 2026-05-05 19:56 | 15.41477 | -61.79380 | 35042 ft | 483 kts | 341° |
| 2026-05-05 19:56 | 15.47837 | -61.81517 | 35039 ft | 483 kts | 341° |
| 2026-05-05 19:57 | 15.54252 | -61.83675 | 35031 ft | 482 kts | 341° |
| 2026-05-05 19:57 | 15.60648 | -61.85828 | 35040 ft | 484 kts | 341° |
| 2026-05-05 19:58 | 15.66981 | -61.88159 | 35033 ft | 483 kts | 335° |
| 2026-05-05 19:58 | 15.72803 | -61.91540 | 35044 ft | 483 kts | 328° |
| 2026-05-05 19:59 | 15.78543 | -61.95134 | 35043 ft | 483 kts | 328° |
| 2026-05-05 19:59 | 15.84345 | -61.98732 | 35050 ft | 489 kts | 328° |
| 2026-05-05 20:00 | 15.90236 | -62.02364 | 35045 ft | 493 kts | 328° |
| 2026-05-05 20:00 | 15.96171 | -62.06020 | 35049 ft | 498 kts | 329° |
| 2026-05-05 20:01 | 16.02178 | -62.09723 | 35050 ft | 503 kts | 328° |
| 2026-05-05 20:01 | 16.08174 | -62.13424 | 34937 ft | 500 kts | 328° |
| 2026-05-05 20:02 | 16.14039 | -62.17046 | 35011 ft | 487 kts | 329° |
| 2026-05-05 20:02 | 16.19839 | -62.20632 | 34861 ft | 483 kts | 329° |
| 2026-05-05 20:02 | 16.22729 | -62.22420 | 34560 ft | 483 kts | 328° |
| 2026-05-05 20:03 | 16.25629 | -62.24214 | 34155 ft | 486 kts | 329° |
| 2026-05-05 20:03 | 16.28546 | -62.26020 | 33694 ft | 488 kts | 329° |
| 2026-05-05 20:03 | 16.31461 | -62.27825 | 33439 ft | 483 kts | 329° |
| 2026-05-05 20:04 | 16.37214 | -62.31388 | 33415 ft | 483 kts | 329° |
| 2026-05-05 20:04 | 16.43024 | -62.34989 | 33372 ft | 486 kts | 329° |
| 2026-05-05 20:05 | 16.48806 | -62.38576 | 33325 ft | 489 kts | 328° |
| 2026-05-05 20:05 | 16.54730 | -62.42254 | 33306 ft | 501 kts | 328° |
| 2026-05-05 20:06 | 16.60773 | -62.46009 | 33278 ft | 507 kts | 328° |
| 2026-05-05 20:06 | 16.63831 | -62.47910 | 32390 ft | 517 kts | 328° |
| 2026-05-05 20:06 | 16.66910 | -62.49824 | 31344 ft | 513 kts | 329° |
| 2026-05-05 20:06 | 16.69936 | -62.51706 | 30431 ft | 495 kts | 329° |
| 2026-05-05 20:07 | 16.72812 | -62.53495 | 29575 ft | 480 kts | 329° |
| 2026-05-05 20:07 | 16.75673 | -62.55276 | 28828 ft | 479 kts | 329° |
| 2026-05-05 20:07 | 16.78557 | -62.57072 | 28085 ft | 483 kts | 328° |
| 2026-05-05 20:07 | 16.81469 | -62.58886 | 27386 ft | 490 kts | 328° |
| 2026-05-05 20:08 | 16.83414 | -62.60098 | 26917 ft | 493 kts | 328° |
| 2026-05-05 20:08 | 16.86362 | -62.61936 | 26204 ft | 491 kts | 328° |
| 2026-05-05 20:08 | 16.89288 | -62.63760 | 25493 ft | 487 kts | 328° |
| 2026-05-05 20:08 | 16.93122 | -62.66150 | 24582 ft | 483 kts | 328° |
| 2026-05-05 20:09 | 16.95997 | -62.67943 | 23896 ft | 480 kts | 328° |
| 2026-05-05 20:09 | 16.97941 | -62.69156 | 23360 ft | 478 kts | 328° |
| 2026-05-05 20:09 | 17.00748 | -62.70911 | 22614 ft | 474 kts | 328° |
| 2026-05-05 20:09 | 17.03561 | -62.72670 | 21975 ft | 461 kts | 328° |
| 2026-05-05 20:10 | 17.06231 | -62.74339 | 21279 ft | 436 kts | 328° |
| 2026-05-05 20:10 | 17.08787 | -62.75936 | 20665 ft | 424 kts | 329° |
| 2026-05-05 20:10 | 17.11315 | -62.77517 | 20069 ft | 422 kts | 329° |
| 2026-05-05 20:10 | 17.13826 | -62.79087 | 19470 ft | 420 kts | 329° |
| 2026-05-05 20:11 | 17.16325 | -62.80651 | 18868 ft | 418 kts | 329° |
| 2026-05-05 20:11 | 17.18816 | -62.82211 | 18236 ft | 416 kts | 329° |
| 2026-05-05 20:11 | 17.21288 | -62.83759 | 17568 ft | 413 kts | 329° |
| 2026-05-05 20:11 | 17.23745 | -62.85297 | 16947 ft | 410 kts | 329° |
| 2026-05-05 20:12 | 17.26182 | -62.86824 | 16339 ft | 407 kts | 329° |
| 2026-05-05 20:12 | 17.28605 | -62.88341 | 15762 ft | 404 kts | 329° |
| 2026-05-05 20:12 | 17.30974 | -62.89826 | 15169 ft | 402 kts | 329° |
| 2026-05-05 20:12 | 17.33367 | -62.91327 | 14572 ft | 400 kts | 329° |
| 2026-05-05 20:13 | 17.35751 | -62.92822 | 13980 ft | 399 kts | 329° |
| 2026-05-05 20:13 | 17.38127 | -62.94313 | 13323 ft | 398 kts | 329° |
| 2026-05-05 20:13 | 17.40493 | -62.95799 | 12720 ft | 395 kts | 329° |
| 2026-05-05 20:13 | 17.42855 | -62.97282 | 12126 ft | 393 kts | 329° |
| 2026-05-05 20:14 | 17.45188 | -62.98748 | 11540 ft | 390 kts | 329° |
| 2026-05-05 20:14 | 17.47512 | -63.00208 | 11123 ft | 384 kts | 329° |
| 2026-05-05 20:14 | 17.49765 | -63.01623 | 10948 ft | 371 kts | 329° |
| 2026-05-05 20:14 | 17.51896 | -63.02963 | 10781 ft | 343 kts | 329° |
| 2026-05-05 20:15 | 17.53867 | -63.04203 | 10617 ft | 318 kts | 329° |
| 2026-05-05 20:15 | 17.55712 | -63.05363 | 10511 ft | 303 kts | 329° |
| 2026-05-05 20:15 | 17.57494 | -63.06484 | 10384 ft | 294 kts | 329° |
| 2026-05-05 20:15 | 17.59223 | -63.07572 | 10268 ft | 286 kts | 329° |
| 2026-05-05 20:16 | 17.60899 | -63.08627 | 10149 ft | 277 kts | 329° |
| 2026-05-05 20:16 | 17.62513 | -63.09643 | 9958 ft | 272 kts | 329° |
| 2026-05-05 20:16 | 17.64143 | -63.10668 | 9634 ft | 275 kts | 329° |
| 2026-05-05 20:16 | 17.65805 | -63.11715 | 9336 ft | 282 kts | 329° |
| 2026-05-05 20:17 | 17.67503 | -63.12784 | 9003 ft | 286 kts | 329° |
| 2026-05-05 20:17 | 17.69208 | -63.13858 | 8676 ft | 286 kts | 329° |
| 2026-05-05 20:17 | 17.70918 | -63.14935 | 8342 ft | 286 kts | 329° |
| 2026-05-05 20:17 | 17.72623 | -63.16011 | 8007 ft | 286 kts | 329° |
| 2026-05-05 20:18 | 17.74332 | -63.17088 | 7681 ft | 287 kts | 330° |
| 2026-05-05 20:18 | 17.76022 | -63.18153 | 7353 ft | 287 kts | 330° |
| 2026-05-05 20:18 | 17.77740 | -63.19238 | 6990 ft | 288 kts | 330° |
| 2026-05-05 20:18 | 17.79462 | -63.20325 | 6656 ft | 290 kts | 330° |
| 2026-05-05 20:19 | 17.81198 | -63.21420 | 6316 ft | 292 kts | 330° |
| 2026-05-05 20:19 | 17.82940 | -63.22519 | 5932 ft | 293 kts | 330° |
| 2026-05-05 20:19 | 17.84694 | -63.23627 | 5560 ft | 294 kts | 330° |
| 2026-05-05 20:19 | 17.86434 | -63.24727 | 5265 ft | 291 kts | 330° |
| 2026-05-05 20:20 | 17.88175 | -63.25826 | 4948 ft | 291 kts | 330° |
| 2026-05-05 20:20 | 17.89910 | -63.26922 | 4628 ft | 289 kts | 330° |
| 2026-05-05 20:20 | 17.91646 | -63.27934 | 4241 ft | 277 kts | 341° |
| 2026-05-05 20:20 | 17.93473 | -63.28322 | 3820 ft | 262 kts | 357° |
| 2026-05-05 20:21 | 17.95282 | -63.28545 | 3526 ft | 265 kts | 354° |
| 2026-05-05 20:21 | 17.97088 | -63.28815 | 3410 ft | 261 kts | 354° |
| 2026-05-05 20:21 | 17.98816 | -63.28996 | 3209 ft | 237 kts | 9° |
| 2026-05-05 20:21 | 18.00242 | -63.28465 | 3082 ft | 204 kts | 42° |
| 2026-05-05 20:22 | 18.01206 | -63.27414 | 3074 ft | 200 kts | 56° |
| 2026-05-05 20:22 | 18.01887 | -63.26181 | 2850 ft | 188 kts | 77° |
| 2026-05-05 20:22 | 18.02098 | -63.24882 | 2663 ft | 176 kts | 84° |
| 2026-05-05 20:22 | 18.02281 | -63.23593 | 2268 ft | 178 kts | 85° |
| 2026-05-05 20:23 | 18.02463 | -63.22327 | 2022 ft | 173 kts | 84° |
| 2026-05-05 20:23 | 18.02640 | -63.21096 | 1770 ft | 167 kts | 84° |
| 2026-05-05 20:23 | 18.02808 | -63.19919 | 1526 ft | 158 kts | 85° |
| 2026-05-05 20:23 | 18.02964 | -63.18819 | 1320 ft | 151 kts | 83° |
| 2026-05-05 20:24 | 18.03121 | -63.17715 | 1140 ft | 156 kts | 85° |
| 2026-05-05 20:24 | 18.03284 | -63.16572 | 933 ft | 157 kts | 85° |
| 2026-05-05 20:24 | 18.03441 | -63.15460 | 726 ft | 151 kts | 84° |
| 2026-05-05 20:24 | 18.03607 | -63.14414 | 548 ft | 140 kts | 83° |
| 2026-05-05 20:25 | 18.03748 | -63.13420 | 356 ft | 136 kts | 86° |
| 2026-05-05 20:25 | 18.03879 | -63.12435 | 167 ft | 138 kts | 84° |
| 2026-05-05 20:25 | 18.04013 | -63.11432 | 32 ft | 134 kts | 83° |
| 2026-05-05 20:25 | 18.04134 | -63.10598 | 29 ft | 90 kts | 81° |
| 2026-05-05 20:26 | 18.04199 | -63.10139 | 27 ft | 39 kts | 82° |
| 2026-05-05 20:26 | 18.04232 | -63.09997 | 27 ft | 18 kts | 51° |
| 2026-05-05 20:26 | 18.04296 | -63.09897 | 27 ft | 1 kts | 88° |
| 2026-05-05 20:26 | 18.04296 | -63.09890 | 27 ft | 1 kts | 91° |
| 2026-05-05 20:27 | 18.04281 | -63.09864 | 27 ft | 7 kts | 138° |
| 2026-05-05 20:27 | 18.04245 | -63.09859 | 28 ft | 7 kts | 193° |
| 2026-05-05 20:27 | 18.04204 | -63.10003 | 27 ft | 37 kts | 269° |
| 2026-05-05 20:27 | 18.04161 | -63.10364 | 27 ft | 62 kts | 263° |
| 2026-05-05 20:28 | 18.04104 | -63.10847 | 28 ft | 59 kts | 262° |
| 2026-05-05 20:28 | 18.04170 | -63.11036 | 27 ft | 25 kts | 291° |
| 2026-05-05 20:28 | 18.04152 | -63.11213 | 27 ft | 22 kts | 260° |
| 2026-05-05 20:28 | 18.04146 | -63.11296 | 27 ft | 9 kts | 285° |
| 2026-05-05 20:29 | 18.04184 | -63.11344 | 31 ft | 9 kts | 332° |
| 2026-05-05 20:29 | 18.04251 | -63.11357 | 29 ft | 10 kts | 351° |
| 2026-05-05 20:29 | 18.04293 | -63.11362 | 31 ft | 4 kts | 358° |
| 2026-05-05 20:29 | 18.04315 | -63.11363 | 29 ft | 0 kts | 354° |
| 2026-05-05 20:30 | 18.04321 | -63.11364 | 30 ft | 1 kts | 354° |
| 2026-05-05 20:30 | 18.04322 | -63.11364 | 30 ft | 0 kts | 354° |